sensor_id;sensor_type;location;lat;lon;timestamp;temperature;humidity
29353;DHT22;16344;50.364;8.944;2023-12-04T00:00:20;-1.10;99.90
29353;DHT22;16344;50.364;8.944;2023-12-04T00:02:45;-1.10;99.90
29353;DHT22;16344;50.364;8.944;2023-12-04T00:05:11;-1.10;99.90
29353;DHT22;16344;50.364;8.944;2023-12-04T00:07:36;-1.00;99.90
29353;DHT22;16344;50.364;8.944;2023-12-04T00:10:02;-1.00;99.90
29353;DHT22;16344;50.364;8.944;2023-12-04T00:12:27;-1.10;99.90
29353;DHT22;16344;50.364;8.944;2023-12-04T00:14:53;-1.10;99.90
29353;DHT22;16344;50.364;8.944;2023-12-04T00:17:18;-1.10;99.90
29353;DHT22;16344;50.364;8.944;2023-12-04T00:19:44;-1.20;99.90
29353;DHT22;16344;50.364;8.944;2023-12-04T00:22:09;-1.20;99.90
29353;DHT22;16344;50.364;8.944;2023-12-04T00:24:35;-1.20;99.90
29353;DHT22;16344;50.364;8.944;2023-12-04T00:27:00;-1.20;99.90
29353;DHT22;16344;50.364;8.944;2023-12-04T00:29:26;-1.30;99.90
29353;DHT22;16344;50.364;8.944;2023-12-04T00:31:51;-1.30;99.90
29353;DHT22;16344;50.364;8.944;2023-12-04T00:34:17;-1.30;99.90
29353;DHT22;16344;50.364;8.944;2023-12-04T00:36:42;-1.30;99.90
29353;DHT22;16344;50.364;8.944;2023-12-04T00:39:07;-1.40;99.90
29353;DHT22;16344;50.364;8.944;2023-12-04T00:41:33;-1.30;99.90
29353;DHT22;16344;50.364;8.944;2023-12-04T00:43:59;-1.40;99.90
29353;DHT22;16344;50.364;8.944;2023-12-04T00:46:24;-1.50;99.90
29353;DHT22;16344;50.364;8.944;2023-12-04T00:48:51;-1.40;99.90
29353;DHT22;16344;50.364;8.944;2023-12-04T00:51:16;-1.50;99.90
29353;DHT22;16344;50.364;8.944;2023-12-04T00:53:41;-1.50;99.90
29353;DHT22;16344;50.364;8.944;2023-12-04T00:56:07;-1.60;99.90
29353;DHT22;16344;50.364;8.944;2023-12-04T00:58:33;-1.60;99.90
29353;DHT22;16344;50.364;8.944;2023-12-04T01:00:58;-1.60;99.90
29353;DHT22;16344;50.364;8.944;2023-12-04T01:03:24;-1.60;99.90
29353;DHT22;16344;50.364;8.944;2023-12-04T01:05:51;-1.60;99.90
29353;DHT22;16344;50.364;8.944;2023-12-04T01:08:17;-1.70;99.90
29353;DHT22;16344;50.364;8.944;2023-12-04T01:10:43;-1.70;99.90
29353;DHT22;16344;50.364;8.944;2023-12-04T01:13:08;-1.70;99.90
29353;DHT22;16344;50.364;8.944;2023-12-04T01:15:34;-1.80;99.90
29353;DHT22;16344;50.364;8.944;2023-12-04T01:17:59;-1.80;99.90
29353;DHT22;16344;50.364;8.944;2023-12-04T01:20:25;-1.90;99.90
29353;DHT22;16344;50.364;8.944;2023-12-04T01:22:51;-1.80;99.90
29353;DHT22;16344;50.364;8.944;2023-12-04T01:25:16;-1.90;99.90
29353;DHT22;16344;50.364;8.944;2023-12-04T01:27:42;-2.00;99.90
29353;DHT22;16344;50.364;8.944;2023-12-04T01:30:08;-2.00;99.90
29353;DHT22;16344;50.364;8.944;2023-12-04T01:32:34;-2.00;99.90
29353;DHT22;16344;50.364;8.944;2023-12-04T01:35:00;-2.00;99.90
29353;DHT22;16344;50.364;8.944;2023-12-04T01:37:25;-2.00;99.90
29353;DHT22;16344;50.364;8.944;2023-12-04T01:39:51;-2.00;99.90
29353;DHT22;16344;50.364;8.944;2023-12-04T01:42:16;-2.00;99.90
29353;DHT22;16344;50.364;8.944;2023-12-04T01:44:41;-2.00;99.90
29353;DHT22;16344;50.364;8.944;2023-12-04T01:47:07;-1.90;99.90
29353;DHT22;16344;50.364;8.944;2023-12-04T01:49:32;-2.00;99.90
29353;DHT22;16344;50.364;8.944;2023-12-04T01:51:58;-2.00;99.90
29353;DHT22;16344;50.364;8.944;2023-12-04T01:54:24;-2.00;99.90
29353;DHT22;16344;50.364;8.944;2023-12-04T01:56:49;-2.10;99.90
29353;DHT22;16344;50.364;8.944;2023-12-04T01:59:15;-2.10;99.90
29353;DHT22;16344;50.364;8.944;2023-12-04T02:01:41;-2.10;99.90
29353;DHT22;16344;50.364;8.944;2023-12-04T02:04:07;-2.10;99.90
29353;DHT22;16344;50.364;8.944;2023-12-04T02:06:32;-2.10;99.90
29353;DHT22;16344;50.364;8.944;2023-12-04T02:08:58;-2.10;99.90
29353;DHT22;16344;50.364;8.944;2023-12-04T02:11:23;-2.10;99.90
29353;DHT22;16344;50.364;8.944;2023-12-04T02:13:49;-2.10;99.90
29353;DHT22;16344;50.364;8.944;2023-12-04T02:16:15;-2.20;99.90
29353;DHT22;16344;50.364;8.944;2023-12-04T02:18:42;-2.20;99.90
29353;DHT22;16344;50.364;8.944;2023-12-04T02:21:08;-2.30;99.90
29353;DHT22;16344;50.364;8.944;2023-12-04T02:23:33;-2.30;99.90
29353;DHT22;16344;50.364;8.944;2023-12-04T02:26:00;-2.30;99.90
29353;DHT22;16344;50.364;8.944;2023-12-04T02:28:28;-2.40;99.90
29353;DHT22;16344;50.364;8.944;2023-12-04T02:30:55;-2.30;99.90
29353;DHT22;16344;50.364;8.944;2023-12-04T02:33:21;-2.30;99.90
29353;DHT22;16344;50.364;8.944;2023-12-04T02:35:49;-2.30;99.90
29353;DHT22;16344;50.364;8.944;2023-12-04T02:38:15;-2.30;99.90
29353;DHT22;16344;50.364;8.944;2023-12-04T02:40:41;-2.30;99.90
29353;DHT22;16344;50.364;8.944;2023-12-04T02:43:06;-2.20;99.90
29353;DHT22;16344;50.364;8.944;2023-12-04T02:45:31;-2.30;99.90
29353;DHT22;16344;50.364;8.944;2023-12-04T02:47:57;-2.30;99.90
29353;DHT22;16344;50.364;8.944;2023-12-04T02:50:22;-2.40;99.90
29353;DHT22;16344;50.364;8.944;2023-12-04T02:52:48;-2.50;99.90
29353;DHT22;16344;50.364;8.944;2023-12-04T02:55:13;-2.50;99.90
29353;DHT22;16344;50.364;8.944;2023-12-04T02:57:39;-2.50;99.90
29353;DHT22;16344;50.364;8.944;2023-12-04T03:00:04;-2.50;99.90
29353;DHT22;16344;50.364;8.944;2023-12-04T03:02:31;-2.60;99.90
29353;DHT22;16344;50.364;8.944;2023-12-04T03:04:56;-2.50;99.90
29353;DHT22;16344;50.364;8.944;2023-12-04T03:07:22;-2.60;99.90
29353;DHT22;16344;50.364;8.944;2023-12-04T03:09:49;-2.60;99.90
29353;DHT22;16344;50.364;8.944;2023-12-04T03:12:15;-2.60;99.90
29353;DHT22;16344;50.364;8.944;2023-12-04T03:14:40;-2.60;99.90
29353;DHT22;16344;50.364;8.944;2023-12-04T03:17:06;-2.60;99.90
29353;DHT22;16344;50.364;8.944;2023-12-04T03:19:31;-2.60;99.90
29353;DHT22;16344;50.364;8.944;2023-12-04T03:21:57;-2.60;99.90
29353;DHT22;16344;50.364;8.944;2023-12-04T03:24:22;-2.60;99.90
29353;DHT22;16344;50.364;8.944;2023-12-04T03:26:47;-2.70;99.90
29353;DHT22;16344;50.364;8.944;2023-12-04T03:29:13;-2.70;99.90
29353;DHT22;16344;50.364;8.944;2023-12-04T03:31:38;-2.70;99.90
29353;DHT22;16344;50.364;8.944;2023-12-04T03:34:04;-2.70;99.90
29353;DHT22;16344;50.364;8.944;2023-12-04T03:36:29;-2.60;99.90
29353;DHT22;16344;50.364;8.944;2023-12-04T03:38:55;-2.50;99.90
29353;DHT22;16344;50.364;8.944;2023-12-04T03:41:20;-2.60;99.90
29353;DHT22;16344;50.364;8.944;2023-12-04T03:43:47;-2.50;99.90
29353;DHT22;16344;50.364;8.944;2023-12-04T03:46:12;-2.60;99.90
29353;DHT22;16344;50.364;8.944;2023-12-04T03:48:38;-2.50;99.90
29353;DHT22;16344;50.364;8.944;2023-12-04T03:51:04;-2.60;99.90
29353;DHT22;16344;50.364;8.944;2023-12-04T03:53:30;-2.60;99.90
29353;DHT22;16344;50.364;8.944;2023-12-04T03:55:57;-2.70;99.90
29353;DHT22;16344;50.364;8.944;2023-12-04T03:58:23;-2.70;99.90
29353;DHT22;16344;50.364;8.944;2023-12-04T04:00:48;-2.70;99.90
29353;DHT22;16344;50.364;8.944;2023-12-04T04:03:14;-2.70;99.90
29353;DHT22;16344;50.364;8.944;2023-12-04T04:05:39;-2.70;99.90
29353;DHT22;16344;50.364;8.944;2023-12-04T04:08:05;-2.60;99.90
29353;DHT22;16344;50.364;8.944;2023-12-04T04:10:32;-2.60;99.90
29353;DHT22;16344;50.364;8.944;2023-12-04T04:12:58;-2.60;99.90
29353;DHT22;16344;50.364;8.944;2023-12-04T04:15:23;-2.60;99.90
29353;DHT22;16344;50.364;8.944;2023-12-04T04:17:49;-2.60;99.90
29353;DHT22;16344;50.364;8.944;2023-12-04T04:20:14;-2.60;99.90
29353;DHT22;16344;50.364;8.944;2023-12-04T04:22:40;-2.60;99.90
29353;DHT22;16344;50.364;8.944;2023-12-04T04:25:06;-2.60;99.90
29353;DHT22;16344;50.364;8.944;2023-12-04T04:27:32;-2.50;99.90
29353;DHT22;16344;50.364;8.944;2023-12-04T04:29:57;-2.50;99.90
29353;DHT22;16344;50.364;8.944;2023-12-04T04:32:23;-2.60;99.90
29353;DHT22;16344;50.364;8.944;2023-12-04T04:34:48;-2.50;99.90
29353;DHT22;16344;50.364;8.944;2023-12-04T04:37:13;-2.40;99.90
29353;DHT22;16344;50.364;8.944;2023-12-04T04:39:39;-2.40;99.90
29353;DHT22;16344;50.364;8.944;2023-12-04T04:42:05;-2.40;99.90
29353;DHT22;16344;50.364;8.944;2023-12-04T04:44:30;-2.40;99.90
29353;DHT22;16344;50.364;8.944;2023-12-04T04:46:55;-2.40;99.90
29353;DHT22;16344;50.364;8.944;2023-12-04T04:49:21;-2.40;99.90
29353;DHT22;16344;50.364;8.944;2023-12-04T04:51:46;-2.40;99.90
29353;DHT22;16344;50.364;8.944;2023-12-04T04:54:12;-2.20;99.90
29353;DHT22;16344;50.364;8.944;2023-12-04T04:56:37;-2.10;99.90
29353;DHT22;16344;50.364;8.944;2023-12-04T04:59:03;-2.00;99.90
29353;DHT22;16344;50.364;8.944;2023-12-04T05:01:28;-2.00;99.90
29353;DHT22;16344;50.364;8.944;2023-12-04T05:03:54;-2.00;99.90
29353;DHT22;16344;50.364;8.944;2023-12-04T05:06:19;-2.00;99.90
29353;DHT22;16344;50.364;8.944;2023-12-04T05:08:45;-2.00;99.90
29353;DHT22;16344;50.364;8.944;2023-12-04T05:11:10;-1.90;99.90
29353;DHT22;16344;50.364;8.944;2023-12-04T05:13:36;-1.90;99.90
29353;DHT22;16344;50.364;8.944;2023-12-04T05:16:01;-1.80;99.90
29353;DHT22;16344;50.364;8.944;2023-12-04T05:18:26;-1.70;99.90
29353;DHT22;16344;50.364;8.944;2023-12-04T05:20:52;-1.80;99.90
29353;DHT22;16344;50.364;8.944;2023-12-04T05:23:17;-1.80;99.90
29353;DHT22;16344;50.364;8.944;2023-12-04T05:25:43;-2.00;99.90
29353;DHT22;16344;50.364;8.944;2023-12-04T05:28:08;-1.90;99.90
29353;DHT22;16344;50.364;8.944;2023-12-04T05:30:34;-1.80;99.90
29353;DHT22;16344;50.364;8.944;2023-12-04T05:32:59;-1.90;99.90
29353;DHT22;16344;50.364;8.944;2023-12-04T05:35:25;-1.80;99.90
29353;DHT22;16344;50.364;8.944;2023-12-04T05:37:50;-1.80;99.90
29353;DHT22;16344;50.364;8.944;2023-12-04T05:40:16;-1.90;99.90
29353;DHT22;16344;50.364;8.944;2023-12-04T05:42:42;-2.00;99.90
29353;DHT22;16344;50.364;8.944;2023-12-04T05:45:08;-1.90;99.90
29353;DHT22;16344;50.364;8.944;2023-12-04T05:47:34;-1.90;99.90
29353;DHT22;16344;50.364;8.944;2023-12-04T05:50:00;-2.00;99.90
29353;DHT22;16344;50.364;8.944;2023-12-04T05:52:25;-2.10;99.90
29353;DHT22;16344;50.364;8.944;2023-12-04T05:54:51;-2.10;99.90
29353;DHT22;16344;50.364;8.944;2023-12-04T05:57:16;-2.00;99.90
29353;DHT22;16344;50.364;8.944;2023-12-04T05:59:42;-2.10;99.90
29353;DHT22;16344;50.364;8.944;2023-12-04T06:02:07;-2.00;99.90
29353;DHT22;16344;50.364;8.944;2023-12-04T06:04:33;-1.90;99.90
29353;DHT22;16344;50.364;8.944;2023-12-04T06:06:58;-2.00;99.90
29353;DHT22;16344;50.364;8.944;2023-12-04T06:09:24;-2.10;99.90
29353;DHT22;16344;50.364;8.944;2023-12-04T06:11:49;-2.10;99.90
29353;DHT22;16344;50.364;8.944;2023-12-04T06:14:14;-2.10;99.90
29353;DHT22;16344;50.364;8.944;2023-12-04T06:16:40;-2.00;99.90
29353;DHT22;16344;50.364;8.944;2023-12-04T06:19:05;-2.00;99.90
29353;DHT22;16344;50.364;8.944;2023-12-04T06:21:31;-2.10;99.90
29353;DHT22;16344;50.364;8.944;2023-12-04T06:23:56;-2.10;99.90
29353;DHT22;16344;50.364;8.944;2023-12-04T06:26:22;-2.10;99.90
29353;DHT22;16344;50.364;8.944;2023-12-04T06:28:48;-2.10;99.90
29353;DHT22;16344;50.364;8.944;2023-12-04T06:31:14;-2.10;99.90
29353;DHT22;16344;50.364;8.944;2023-12-04T06:33:41;-2.10;99.90
29353;DHT22;16344;50.364;8.944;2023-12-04T06:36:07;-2.20;99.90
29353;DHT22;16344;50.364;8.944;2023-12-04T06:38:32;-2.10;99.90
29353;DHT22;16344;50.364;8.944;2023-12-04T06:41:01;-2.20;99.90
29353;DHT22;16344;50.364;8.944;2023-12-04T06:43:26;-2.20;99.90
29353;DHT22;16344;50.364;8.944;2023-12-04T06:45:53;-2.20;99.90
29353;DHT22;16344;50.364;8.944;2023-12-04T06:48:20;-2.20;99.90
29353;DHT22;16344;50.364;8.944;2023-12-04T06:50:46;-2.20;99.90
29353;DHT22;16344;50.364;8.944;2023-12-04T06:53:11;-2.10;99.90
29353;DHT22;16344;50.364;8.944;2023-12-04T06:55:37;-2.10;99.90
29353;DHT22;16344;50.364;8.944;2023-12-04T06:58:02;-2.20;99.90
29353;DHT22;16344;50.364;8.944;2023-12-04T07:00:28;-2.20;99.90
29353;DHT22;16344;50.364;8.944;2023-12-04T07:02:53;-2.20;99.90
29353;DHT22;16344;50.364;8.944;2023-12-04T07:05:19;-2.20;99.90
29353;DHT22;16344;50.364;8.944;2023-12-04T07:07:44;-2.20;99.90
29353;DHT22;16344;50.364;8.944;2023-12-04T07:10:10;-2.20;99.90
29353;DHT22;16344;50.364;8.944;2023-12-04T07:12:42;-2.20;99.90
29353;DHT22;16344;50.364;8.944;2023-12-04T07:15:08;-2.20;99.90
29353;DHT22;16344;50.364;8.944;2023-12-04T07:17:35;-2.20;99.90
29353;DHT22;16344;50.364;8.944;2023-12-04T07:20:00;-2.20;99.90
29353;DHT22;16344;50.364;8.944;2023-12-04T07:22:25;-2.20;99.90
29353;DHT22;16344;50.364;8.944;2023-12-04T07:24:51;-2.20;99.90
29353;DHT22;16344;50.364;8.944;2023-12-04T07:27:16;-2.20;99.90
29353;DHT22;16344;50.364;8.944;2023-12-04T07:29:42;-2.20;99.90
29353;DHT22;16344;50.364;8.944;2023-12-04T07:32:07;-2.10;99.90
29353;DHT22;16344;50.364;8.944;2023-12-04T07:34:33;-2.00;99.90
29353;DHT22;16344;50.364;8.944;2023-12-04T07:36:58;-2.00;99.90
29353;DHT22;16344;50.364;8.944;2023-12-04T07:39:23;-2.00;99.90
29353;DHT22;16344;50.364;8.944;2023-12-04T07:41:49;-2.00;99.90
29353;DHT22;16344;50.364;8.944;2023-12-04T07:44:15;-2.00;99.90
29353;DHT22;16344;50.364;8.944;2023-12-04T07:46:41;-2.00;99.90
29353;DHT22;16344;50.364;8.944;2023-12-04T07:49:06;-1.90;99.90
29353;DHT22;16344;50.364;8.944;2023-12-04T07:51:31;-1.90;99.90
29353;DHT22;16344;50.364;8.944;2023-12-04T07:53:57;-1.90;99.90
29353;DHT22;16344;50.364;8.944;2023-12-04T07:56:23;-2.00;99.90
29353;DHT22;16344;50.364;8.944;2023-12-04T07:58:48;-2.10;99.90
29353;DHT22;16344;50.364;8.944;2023-12-04T08:01:14;-2.10;99.90
29353;DHT22;16344;50.364;8.944;2023-12-04T08:03:40;-2.10;99.90
29353;DHT22;16344;50.364;8.944;2023-12-04T08:06:05;-2.10;99.90
29353;DHT22;16344;50.364;8.944;2023-12-04T08:08:31;-2.00;99.90
29353;DHT22;16344;50.364;8.944;2023-12-04T08:10:57;-2.00;99.90
29353;DHT22;16344;50.364;8.944;2023-12-04T08:13:22;-2.00;99.90
29353;DHT22;16344;50.364;8.944;2023-12-04T08:15:48;-1.90;99.90
29353;DHT22;16344;50.364;8.944;2023-12-04T08:18:13;-1.90;99.90
29353;DHT22;16344;50.364;8.944;2023-12-04T08:20:39;-1.80;99.90
29353;DHT22;16344;50.364;8.944;2023-12-04T08:23:04;-1.80;99.90
29353;DHT22;16344;50.364;8.944;2023-12-04T08:25:30;-1.70;83.70
29353;DHT22;16344;50.364;8.944;2023-12-04T08:27:57;-1.70;94.30
29353;DHT22;16344;50.364;8.944;2023-12-04T08:30:23;-1.60;49.30
29353;DHT22;16344;50.364;8.944;2023-12-04T08:32:48;-1.60;62.00
29353;DHT22;16344;50.364;8.944;2023-12-04T08:35:14;-1.50;41.00
29353;DHT22;16344;50.364;8.944;2023-12-04T08:37:40;-1.40;55.50
29353;DHT22;16344;50.364;8.944;2023-12-04T08:40:05;-1.50;25.80
29353;DHT22;16344;50.364;8.944;2023-12-04T08:42:33;-1.50;23.00
29353;DHT22;16344;50.364;8.944;2023-12-04T08:44:59;-1.40;14.10
29353;DHT22;16344;50.364;8.944;2023-12-04T08:47:24;-1.40;21.30
29353;DHT22;16344;50.364;8.944;2023-12-04T08:49:50;-1.40;11.50
29353;DHT22;16344;50.364;8.944;2023-12-04T08:52:15;-1.40;37.20
29353;DHT22;16344;50.364;8.944;2023-12-04T08:54:41;-1.30;38.10
29353;DHT22;16344;50.364;8.944;2023-12-04T08:57:07;-1.30;1.00
29353;DHT22;16344;50.364;8.944;2023-12-04T08:59:33;-1.30;16.10
29353;DHT22;16344;50.364;8.944;2023-12-04T09:01:58;-1.30;24.60
29353;DHT22;16344;50.364;8.944;2023-12-04T09:04:24;-1.40;15.80
29353;DHT22;16344;50.364;8.944;2023-12-04T09:06:49;-1.40;45.90
29353;DHT22;16344;50.364;8.944;2023-12-04T09:09:14;-1.40;47.50
29353;DHT22;16344;50.364;8.944;2023-12-04T09:11:41;-1.20;22.80
29353;DHT22;16344;50.364;8.944;2023-12-04T09:14:07;-1.20;1.60
29353;DHT22;16344;50.364;8.944;2023-12-04T09:16:32;-1.20;1.00
29353;DHT22;16344;50.364;8.944;2023-12-04T09:18:58;-1.20;1.00
29353;DHT22;16344;50.364;8.944;2023-12-04T09:21:24;-1.20;1.00
29353;DHT22;16344;50.364;8.944;2023-12-04T09:23:49;-1.20;1.00
29353;DHT22;16344;50.364;8.944;2023-12-04T09:26:15;-1.20;1.00
29353;DHT22;16344;50.364;8.944;2023-12-04T09:28:41;-1.20;1.00
29353;DHT22;16344;50.364;8.944;2023-12-04T09:31:08;-1.20;1.00
29353;DHT22;16344;50.364;8.944;2023-12-04T09:33:33;-1.10;5.90
29353;DHT22;16344;50.364;8.944;2023-12-04T09:35:58;-1.10;1.00
29353;DHT22;16344;50.364;8.944;2023-12-04T09:38:24;-1.10;1.00
29353;DHT22;16344;50.364;8.944;2023-12-04T09:40:50;-1.00;1.00
29353;DHT22;16344;50.364;8.944;2023-12-04T09:43:17;-1.00;1.00
29353;DHT22;16344;50.364;8.944;2023-12-04T09:45:43;-1.00;21.20
29353;DHT22;16344;50.364;8.944;2023-12-04T09:48:09;-1.00;1.00
29353;DHT22;16344;50.364;8.944;2023-12-04T09:50:35;-1.00;1.00
29353;DHT22;16344;50.364;8.944;2023-12-04T09:53:00;-1.00;1.00
29353;DHT22;16344;50.364;8.944;2023-12-04T09:55:27;-1.00;1.00
29353;DHT22;16344;50.364;8.944;2023-12-04T09:57:52;-0.90;1.00
29353;DHT22;16344;50.364;8.944;2023-12-04T10:00:20;-0.80;1.00
29353;DHT22;16344;50.364;8.944;2023-12-04T10:02:46;-0.80;1.00
29353;DHT22;16344;50.364;8.944;2023-12-04T10:05:12;-0.80;1.00
29353;DHT22;16344;50.364;8.944;2023-12-04T10:07:38;-0.80;1.00
29353;DHT22;16344;50.364;8.944;2023-12-04T10:10:04;-0.60;1.00
29353;DHT22;16344;50.364;8.944;2023-12-04T10:12:31;-0.50;1.00
29353;DHT22;16344;50.364;8.944;2023-12-04T10:15:03;-0.50;1.00
29353;DHT22;16344;50.364;8.944;2023-12-04T10:17:32;-0.50;1.00
29353;DHT22;16344;50.364;8.944;2023-12-04T10:20:31;-0.60;1.00
29353;DHT22;16344;50.364;8.944;2023-12-04T10:23:00;-0.50;1.00
29353;DHT22;16344;50.364;8.944;2023-12-04T10:25:27;-0.50;1.00
29353;DHT22;16344;50.364;8.944;2023-12-04T10:27:54;-0.60;1.00
29353;DHT22;16344;50.364;8.944;2023-12-04T10:30:23;-0.60;1.00
29353;DHT22;16344;50.364;8.944;2023-12-04T10:32:49;-0.50;1.00
29353;DHT22;16344;50.364;8.944;2023-12-04T10:35:14;-0.50;1.00
29353;DHT22;16344;50.364;8.944;2023-12-04T10:37:40;-0.40;1.00
29353;DHT22;16344;50.364;8.944;2023-12-04T10:40:06;-0.40;1.00
29353;DHT22;16344;50.364;8.944;2023-12-04T10:42:34;-0.40;1.00
29353;DHT22;16344;50.364;8.944;2023-12-04T10:45:00;-0.40;1.00
29353;DHT22;16344;50.364;8.944;2023-12-04T10:47:29;-0.40;1.00
29353;DHT22;16344;50.364;8.944;2023-12-04T10:49:58;-0.40;1.00
29353;DHT22;16344;50.364;8.944;2023-12-04T10:52:23;-0.50;1.00
29353;DHT22;16344;50.364;8.944;2023-12-04T10:54:49;-0.50;1.00
29353;DHT22;16344;50.364;8.944;2023-12-04T10:57:25;-0.40;1.00
29353;DHT22;16344;50.364;8.944;2023-12-04T10:59:51;-0.40;1.00
29353;DHT22;16344;50.364;8.944;2023-12-04T11:02:19;-0.40;3.80
29353;DHT22;16344;50.364;8.944;2023-12-04T11:04:48;-0.50;19.10
29353;DHT22;16344;50.364;8.944;2023-12-04T11:07:14;-0.50;10.70
29353;DHT22;16344;50.364;8.944;2023-12-04T11:09:40;-0.40;12.10
29353;DHT22;16344;50.364;8.944;2023-12-04T11:12:07;-0.40;12.20
29353;DHT22;16344;50.364;8.944;2023-12-04T11:14:37;-0.40;15.10
29353;DHT22;16344;50.364;8.944;2023-12-04T11:17:05;-0.40;49.10
29353;DHT22;16344;50.364;8.944;2023-12-04T11:19:33;-0.40;13.80
29353;DHT22;16344;50.364;8.944;2023-12-04T11:22:00;-0.40;36.60
29353;DHT22;16344;50.364;8.944;2023-12-04T11:24:26;-0.40;39.40
29353;DHT22;16344;50.364;8.944;2023-12-04T11:26:51;-0.40;37.10
29353;DHT22;16344;50.364;8.944;2023-12-04T11:29:17;-0.40;15.40
29353;DHT22;16344;50.364;8.944;2023-12-04T11:31:44;-0.40;4.20
29353;DHT22;16344;50.364;8.944;2023-12-04T11:34:11;-0.40;1.00
29353;DHT22;16344;50.364;8.944;2023-12-04T11:36:37;-0.30;12.30
29353;DHT22;16344;50.364;8.944;2023-12-04T11:39:03;-0.20;1.00
29353;DHT22;16344;50.364;8.944;2023-12-04T11:41:29;-0.20;1.00
29353;DHT22;16344;50.364;8.944;2023-12-04T11:43:55;-0.10;1.00
29353;DHT22;16344;50.364;8.944;2023-12-04T11:46:21;0.00;1.00
29353;DHT22;16344;50.364;8.944;2023-12-04T11:48:51;0.00;1.00
29353;DHT22;16344;50.364;8.944;2023-12-04T11:54:03;0.00;1.00
29353;DHT22;16344;50.364;8.944;2023-12-04T11:56:30;0.00;1.00
29353;DHT22;16344;50.364;8.944;2023-12-04T11:59:02;0.00;1.00
29353;DHT22;16344;50.364;8.944;2023-12-04T12:01:28;0.00;1.00
29353;DHT22;16344;50.364;8.944;2023-12-04T12:03:57;0.00;1.00
29353;DHT22;16344;50.364;8.944;2023-12-04T12:06:23;0.00;1.00
29353;DHT22;16344;50.364;8.944;2023-12-04T12:08:48;-0.10;1.00
29353;DHT22;16344;50.364;8.944;2023-12-04T12:11:14;0.00;1.00
29353;DHT22;16344;50.364;8.944;2023-12-04T12:13:40;0.00;1.00
29353;DHT22;16344;50.364;8.944;2023-12-04T12:16:06;0.10;1.00
29353;DHT22;16344;50.364;8.944;2023-12-04T12:18:34;0.10;1.00
29353;DHT22;16344;50.364;8.944;2023-12-04T12:20:59;0.10;1.00
29353;DHT22;16344;50.364;8.944;2023-12-04T12:23:25;0.00;1.00
29353;DHT22;16344;50.364;8.944;2023-12-04T12:25:51;0.00;1.00
29353;DHT22;16344;50.364;8.944;2023-12-04T12:28:17;-0.10;1.00
29353;DHT22;16344;50.364;8.944;2023-12-04T12:30:42;-0.20;1.00
29353;DHT22;16344;50.364;8.944;2023-12-04T12:33:12;-0.20;1.00
29353;DHT22;16344;50.364;8.944;2023-12-04T12:35:38;-0.30;1.00
29353;DHT22;16344;50.364;8.944;2023-12-04T12:38:03;-0.30;1.00
29353;DHT22;16344;50.364;8.944;2023-12-04T12:40:29;-0.30;1.00
29353;DHT22;16344;50.364;8.944;2023-12-04T12:43:07;-0.20;1.00
29353;DHT22;16344;50.364;8.944;2023-12-04T12:45:39;-0.20;1.00
29353;DHT22;16344;50.364;8.944;2023-12-04T12:48:05;-0.20;1.00
29353;DHT22;16344;50.364;8.944;2023-12-04T12:50:31;-0.30;1.00
29353;DHT22;16344;50.364;8.944;2023-12-04T12:52:56;-0.30;1.00
29353;DHT22;16344;50.364;8.944;2023-12-04T12:55:27;-0.40;1.00
29353;DHT22;16344;50.364;8.944;2023-12-04T12:57:52;-0.40;6.70
29353;DHT22;16344;50.364;8.944;2023-12-04T13:00:20;-0.40;37.60
29353;DHT22;16344;50.364;8.944;2023-12-04T13:02:45;-0.50;98.70
29353;DHT22;16344;50.364;8.944;2023-12-04T13:05:11;-0.50;99.90
29353;DHT22;16344;50.364;8.944;2023-12-04T13:07:37;-0.60;99.90
29353;DHT22;16344;50.364;8.944;2023-12-04T13:10:02;-0.60;99.90
29353;DHT22;16344;50.364;8.944;2023-12-04T13:12:30;-0.60;99.90
29353;DHT22;16344;50.364;8.944;2023-12-04T13:14:56;-0.70;99.90
29353;DHT22;16344;50.364;8.944;2023-12-04T13:17:21;-0.70;99.90
29353;DHT22;16344;50.364;8.944;2023-12-04T13:19:46;-0.60;99.90
29353;DHT22;16344;50.364;8.944;2023-12-04T13:22:12;-0.60;99.90
29353;DHT22;16344;50.364;8.944;2023-12-04T13:24:38;-0.60;99.90
29353;DHT22;16344;50.364;8.944;2023-12-04T13:27:03;-0.50;99.90
29353;DHT22;16344;50.364;8.944;2023-12-04T13:29:29;-0.50;99.90
29353;DHT22;16344;50.364;8.944;2023-12-04T13:31:54;-0.50;99.90
29353;DHT22;16344;50.364;8.944;2023-12-04T13:34:20;-0.60;99.90
29353;DHT22;16344;50.364;8.944;2023-12-04T13:36:45;-0.50;99.90
29353;DHT22;16344;50.364;8.944;2023-12-04T13:39:11;-0.40;99.90
29353;DHT22;16344;50.364;8.944;2023-12-04T13:41:42;-0.20;99.90
29353;DHT22;16344;50.364;8.944;2023-12-04T13:44:26;0.10;99.90
29353;DHT22;16344;50.364;8.944;2023-12-04T13:46:52;0.00;99.90
29353;DHT22;16344;50.364;8.944;2023-12-04T13:49:17;-0.10;99.90
29353;DHT22;16344;50.364;8.944;2023-12-04T13:51:44;-0.30;99.90
29353;DHT22;16344;50.364;8.944;2023-12-04T13:54:10;-0.50;99.90
29353;DHT22;16344;50.364;8.944;2023-12-04T13:56:46;-0.30;1.00
29353;DHT22;16344;50.364;8.944;2023-12-04T13:59:22;-0.50;1.00
29353;DHT22;16344;50.364;8.944;2023-12-04T14:01:48;-0.50;1.00
29353;DHT22;16344;50.364;8.944;2023-12-04T14:04:17;-0.60;1.00
29353;DHT22;16344;50.364;8.944;2023-12-04T14:06:43;-0.60;1.00
29353;DHT22;16344;50.364;8.944;2023-12-04T14:09:08;-0.80;1.00
29353;DHT22;16344;50.364;8.944;2023-12-04T14:11:36;-0.70;1.00
29353;DHT22;16344;50.364;8.944;2023-12-04T14:14:01;-0.80;1.00
29353;DHT22;16344;50.364;8.944;2023-12-04T14:16:27;-0.80;1.00
29353;DHT22;16344;50.364;8.944;2023-12-04T14:18:53;-0.80;1.00
29353;DHT22;16344;50.364;8.944;2023-12-04T14:21:19;-0.80;1.00
29353;DHT22;16344;50.364;8.944;2023-12-04T14:23:44;-0.80;1.00
29353;DHT22;16344;50.364;8.944;2023-12-04T14:26:10;-0.90;1.00
29353;DHT22;16344;50.364;8.944;2023-12-04T14:28:36;-0.90;1.00
29353;DHT22;16344;50.364;8.944;2023-12-04T14:31:01;-0.80;1.00
29353;DHT22;16344;50.364;8.944;2023-12-04T14:33:27;-0.90;1.00
29353;DHT22;16344;50.364;8.944;2023-12-04T14:35:52;-0.80;1.00
29353;DHT22;16344;50.364;8.944;2023-12-04T14:38:18;-0.80;1.00
29353;DHT22;16344;50.364;8.944;2023-12-04T14:40:43;-0.80;1.00
29353;DHT22;16344;50.364;8.944;2023-12-04T14:43:09;-0.80;1.00
29353;DHT22;16344;50.364;8.944;2023-12-04T14:45:36;-0.80;1.00
29353;DHT22;16344;50.364;8.944;2023-12-04T14:48:04;-1.00;1.00
29353;DHT22;16344;50.364;8.944;2023-12-04T14:50:35;-1.10;1.00
29353;DHT22;16344;50.364;8.944;2023-12-04T14:53:02;-1.10;1.00
29353;DHT22;16344;50.364;8.944;2023-12-04T14:55:41;-1.20;1.00
29353;DHT22;16344;50.364;8.944;2023-12-04T14:58:36;-1.20;1.00
29353;DHT22;16344;50.364;8.944;2023-12-04T15:01:13;-1.20;1.00
29353;DHT22;16344;50.364;8.944;2023-12-04T15:03:41;-1.40;1.00
29353;DHT22;16344;50.364;8.944;2023-12-04T15:06:25;-1.40;1.00
29353;DHT22;16344;50.364;8.944;2023-12-04T15:09:06;-1.30;1.00
29353;DHT22;16344;50.364;8.944;2023-12-04T15:11:50;-1.30;1.00
29353;DHT22;16344;50.364;8.944;2023-12-04T15:14:34;-1.30;1.00
29353;DHT22;16344;50.364;8.944;2023-12-04T15:17:17;-1.40;1.00
29353;DHT22;16344;50.364;8.944;2023-12-04T15:19:58;-1.40;1.00
29353;DHT22;16344;50.364;8.944;2023-12-04T15:22:36;-1.30;1.00
29353;DHT22;16344;50.364;8.944;2023-12-04T15:25:03;-1.20;1.00
29353;DHT22;16344;50.364;8.944;2023-12-04T15:27:28;-1.30;1.00
29353;DHT22;16344;50.364;8.944;2023-12-04T15:29:53;-1.20;1.00
29353;DHT22;16344;50.364;8.944;2023-12-04T15:32:19;-1.20;1.00
29353;DHT22;16344;50.364;8.944;2023-12-04T15:34:44;-1.20;1.00